createdAt,value
2019-05-23T00:01:54.717Z,4.67
2019-05-23T00:05:27.955Z,5.30
2019-05-23T00:08:38.057Z,4.60
2019-05-23T00:11:30.600Z,5.50
2019-05-23T00:14:52.946Z,5.53
2019-05-23T00:17:43.495Z,5.10
2019-05-23T00:20:34.548Z,4.40
2019-05-23T00:23:26.739Z,6.20
2019-05-23T00:26:18.125Z,5.10
2019-05-23T00:29:10.625Z,5.70
2019-05-23T00:32:09.595Z,5.30
2019-05-23T00:34:59.483Z,5.60
2019-05-23T00:37:51.331Z,5.40
2019-05-23T00:40:43.514Z,6.70
2019-05-23T00:43:35.468Z,6.47
2019-05-23T00:46:26.409Z,6.77
2019-05-23T00:49:18.554Z,6.73
2019-05-23T00:52:09.890Z,7.70
2019-05-23T00:55:00.051Z,6.57
2019-05-23T00:57:51.771Z,7.60
2019-05-23T01:00:43.368Z,6.27
2019-05-23T01:03:34.266Z,7.43
2019-05-23T01:06:24.336Z,6.80
2019-05-23T01:09:14.740Z,9.10
2019-05-23T01:12:08.070Z,7.03
2019-05-23T01:14:58.232Z,6.83
2019-05-23T01:17:50.133Z,7.90
2019-05-23T01:20:53.439Z,7.80
2019-05-23T01:23:47.829Z,7.83
2019-05-23T01:26:38.783Z,8.67
2019-05-23T01:29:37.428Z,8.20
2019-05-23T01:32:41.532Z,8.10
2019-05-23T01:35:32.100Z,8.33
2019-05-23T01:38:22.964Z,6.77
2019-05-23T01:41:12.870Z,7.47
2019-05-23T01:44:05.230Z,7.60
2019-05-23T01:46:55.913Z,6.13
2019-05-23T01:49:47.565Z,6.93
2019-05-23T01:52:37.596Z,6.97
2019-05-23T01:55:27.390Z,6.80
2019-05-23T01:58:18.052Z,6.73
2019-05-23T02:01:08.973Z,6.40
2019-05-23T02:03:59.465Z,6.80
2019-05-23T02:06:49.641Z,6.83
2019-05-23T02:09:40.034Z,5.73
2019-05-23T02:12:31.071Z,6.40
2019-05-23T02:15:22.259Z,6.30
2019-05-23T02:18:12.578Z,6.70
2019-05-23T02:21:02.963Z,6.57
2019-05-23T02:23:52.485Z,6.70
2019-05-23T02:26:43.252Z,7.30
2019-05-23T02:29:33.952Z,5.53
2019-05-23T02:32:26.608Z,6.70
2019-05-23T02:35:17.287Z,6.60
2019-05-23T02:38:25.491Z,5.97
2019-05-23T02:41:40.577Z,6.53
2019-05-23T02:44:32.830Z,6.47
2019-05-23T02:47:29.841Z,5.70
2019-05-23T02:50:35.497Z,6.53
2019-05-23T02:53:31.389Z,6.47
2019-05-23T02:56:22.463Z,6.90
2019-05-23T02:59:49.135Z,6.17
2019-05-23T03:02:54.633Z,6.23
2019-05-23T03:05:45.259Z,6.33
2019-05-23T03:08:37.033Z,6.00
2019-05-23T03:11:42.299Z,5.90
2019-05-23T03:14:36.932Z,6.10
2019-05-23T03:17:29.967Z,6.80
2019-05-23T03:20:21.627Z,6.57
2019-05-23T03:23:13.953Z,6.20
2019-05-23T03:26:51.714Z,6.47
2019-05-23T03:29:42.148Z,7.37
2019-05-23T03:32:44.008Z,6.00
2019-05-23T03:35:40.309Z,6.40
2019-05-23T03:38:30.951Z,6.47
2019-05-23T03:41:21.887Z,6.00
2019-05-23T03:44:11.861Z,6.50
2019-05-23T03:47:04.205Z,6.40
2019-05-23T03:49:55.409Z,6.67
2019-05-23T03:52:46.458Z,6.70
2019-05-23T03:55:38.709Z,6.33
2019-05-23T03:58:29.924Z,7.00
2019-05-23T04:01:23.682Z,5.70
2019-05-23T04:04:15.442Z,6.20
2019-05-23T04:07:07.279Z,6.80
2019-05-23T04:09:57.442Z,7.27
2019-05-23T04:12:47.613Z,6.20
2019-05-23T04:15:37.972Z,7.10
2019-05-23T04:18:28.468Z,6.50
2019-05-23T04:21:22.436Z,5.67
2019-05-23T04:24:12.793Z,6.47
2019-05-23T04:27:03.925Z,6.33
2019-05-23T04:29:54.162Z,7.07
2019-05-23T04:32:44.373Z,5.87
2019-05-23T04:35:34.683Z,6.07
2019-05-23T04:38:25.346Z,6.97
2019-05-23T04:41:15.693Z,6.00
2019-05-23T04:44:06.904Z,6.53
2019-05-23T04:46:56.835Z,7.37
2019-05-23T04:49:48.538Z,6.03
2019-05-23T04:52:38.709Z,6.87
2019-05-23T04:55:29.344Z,7.37
2019-05-23T04:58:20.329Z,6.10
2019-05-23T05:01:11.305Z,7.07
2019-05-23T05:04:02.167Z,6.23
2019-05-23T05:06:53.220Z,7.40
2019-05-23T05:09:43.749Z,7.00
2019-05-23T05:12:34.917Z,7.20
2019-05-23T05:15:25.415Z,6.90
2019-05-23T05:18:16.428Z,7.63
2019-05-23T05:21:06.489Z,7.27
2019-05-23T05:23:56.827Z,7.40
2019-05-23T05:26:46.774Z,6.90
2019-05-23T05:29:36.772Z,7.07
2019-05-23T05:32:43.450Z,8.17
2019-05-23T05:35:19.570Z,7.30
2019-05-23T05:38:09.721Z,6.63
2019-05-23T05:40:59.989Z,7.70
2019-05-23T05:43:49.975Z,8.40
2019-05-23T05:46:40.552Z,7.27
2019-05-23T05:49:31.275Z,6.83
2019-05-23T05:52:21.306Z,7.80
2019-05-23T05:55:13.542Z,7.20
2019-05-23T05:58:03.731Z,7.20
2019-05-23T06:01:04.224Z,7.03
2019-05-23T06:03:54.149Z,7.70
2019-05-23T06:07:03.747Z,7.00
2019-05-23T06:09:55.836Z,6.70
2019-05-23T06:12:45.833Z,6.40
2019-05-23T06:15:35.673Z,6.60
2019-05-23T06:18:26.231Z,7.90
2019-05-23T06:21:19.159Z,6.33
2019-05-23T06:24:09.520Z,7.17
2019-05-23T06:26:59.624Z,5.97
2019-05-23T06:29:50.240Z,6.53
2019-05-23T06:32:40.294Z,7.50
2019-05-23T06:35:30.934Z,7.50
2019-05-23T06:38:20.923Z,7.63
2019-05-23T06:41:12.101Z,5.87
2019-05-23T06:44:03.109Z,7.07
2019-05-23T06:46:52.928Z,7.77
2019-05-23T06:49:42.993Z,6.07
2019-05-23T06:52:33.724Z,7.10
2019-05-23T06:55:23.517Z,7.20
2019-05-23T06:58:13.468Z,6.70
2019-05-23T07:01:03.933Z,7.33
2019-05-23T07:03:53.564Z,7.57
2019-05-23T07:06:44.485Z,6.90
2019-05-23T07:09:34.731Z,6.97
2019-05-23T07:12:24.937Z,7.07
2019-05-23T07:15:15.992Z,6.57
2019-05-23T07:18:06.278Z,7.10
2019-05-23T07:20:56.068Z,6.00
2019-05-23T07:23:45.997Z,6.57
2019-05-23T07:26:36.267Z,8.53
2019-05-23T07:29:26.558Z,7.53
2019-05-23T07:32:16.237Z,6.23
2019-05-23T07:35:07.120Z,7.20
2019-05-23T07:37:57.010Z,7.70
2019-05-23T07:40:48.175Z,8.80
2019-05-23T07:43:38.222Z,6.37
2019-05-23T07:46:28.245Z,7.80
2019-05-23T07:49:18.739Z,7.00
2019-05-23T07:52:09.117Z,7.13
2019-05-23T07:55:07.504Z,7.70
2019-05-23T07:57:58.116Z,7.03
2019-05-23T08:00:53.357Z,7.60
2019-05-23T08:03:44.005Z,6.43
2019-05-23T08:06:34.383Z,6.40
2019-05-23T08:09:25.188Z,6.67
2019-05-23T08:12:15.393Z,6.00
2019-05-23T08:15:06.549Z,7.47
2019-05-23T08:17:56.725Z,6.53
2019-05-23T08:20:47.625Z,6.57
2019-05-23T08:23:38.907Z,6.80
2019-05-23T08:26:30.720Z,6.23
2019-05-23T08:29:28.213Z,5.70
2019-05-23T08:32:12.577Z,5.77
2019-05-23T08:35:03.408Z,6.30
2019-05-23T08:37:55.016Z,5.97
2019-05-23T08:40:45.176Z,6.70
2019-05-23T08:43:35.605Z,6.03
2019-05-23T08:46:26.960Z,5.40
2019-05-23T08:49:16.658Z,5.30
2019-05-23T08:52:06.805Z,6.27
2019-05-23T08:55:03.128Z,6.23
2019-05-23T08:57:54.460Z,5.90
2019-05-23T09:00:45.986Z,5.77
2019-05-23T09:03:36.279Z,5.70
2019-05-23T09:06:26.655Z,4.93
2019-05-23T09:09:29.081Z,5.27
2019-05-23T09:12:11.692Z,5.87
2019-05-23T09:15:02.214Z,5.60
2019-05-23T09:17:54.103Z,5.17
2019-05-23T09:20:44.618Z,5.17
2019-05-23T09:23:35.767Z,6.60
2019-05-23T09:26:26.369Z,4.67
2019-05-23T09:29:16.951Z,6.03
2019-05-23T09:32:07.080Z,4.93
2019-05-23T09:34:57.254Z,3.83
2019-05-23T09:37:47.977Z,3.20
2019-05-23T09:40:38.236Z,6.07
2019-05-23T09:43:28.192Z,4.73
2019-05-23T09:46:23.231Z,5.10
2019-05-23T09:49:15.569Z,4.47
2019-05-23T09:52:11.093Z,5.90
2019-05-23T09:55:02.017Z,5.30
2019-05-23T09:57:51.885Z,4.53
2019-05-23T10:00:43.156Z,4.90
2019-05-23T10:03:33.820Z,5.63
2019-05-23T10:06:23.856Z,4.30
2019-05-23T10:09:13.722Z,7.33
2019-05-23T10:12:06.128Z,5.43
2019-05-23T10:14:57.043Z,6.30
2019-05-23T10:17:48.156Z,5.57
2019-05-23T10:20:38.373Z,4.43
2019-05-23T10:23:28.626Z,5.03
2019-05-23T10:26:18.635Z,4.37
2019-05-23T10:29:08.250Z,4.20
2019-05-23T10:31:58.677Z,4.77
2019-05-23T10:34:48.818Z,6.00
2019-05-23T10:37:38.919Z,4.03
2019-05-23T10:40:29.843Z,5.40
2019-05-23T10:43:19.533Z,4.03
2019-05-23T10:46:09.433Z,4.80
2019-05-23T10:48:59.169Z,4.70
2019-05-23T10:51:48.899Z,4.40
2019-05-23T10:54:38.344Z,4.53
2019-05-23T10:57:28.632Z,5.20
2019-05-23T11:00:22.191Z,4.10
2019-05-23T11:03:15.157Z,4.40
2019-05-23T11:06:15.723Z,3.00
2019-05-23T11:08:58.523Z,3.30
2019-05-23T11:11:48.489Z,3.17
2019-05-23T11:14:38.920Z,3.80
2019-05-23T11:17:29.121Z,3.83
2019-05-23T11:20:20.938Z,4.17
2019-05-23T11:23:12.478Z,3.93
2019-05-23T11:26:02.792Z,5.17
2019-05-23T11:28:53.015Z,4.70
2019-05-23T11:31:43.327Z,3.70
2019-05-23T11:34:32.963Z,3.87
2019-05-23T11:37:23.254Z,3.70
2019-05-23T11:40:13.469Z,3.83
2019-05-23T11:43:03.985Z,4.10
2019-05-23T11:46:10.419Z,3.77
2019-05-23T11:49:01.294Z,4.80
2019-05-23T11:51:51.530Z,3.10
2019-05-23T11:54:41.435Z,2.50
2019-05-23T11:57:31.565Z,3.57
2019-05-23T12:00:57.573Z,3.57
2019-05-23T12:03:49.477Z,4.80
2019-05-23T12:06:55.060Z,3.67
2019-05-23T12:09:37.430Z,2.77
2019-05-23T12:12:27.507Z,3.43
2019-05-23T12:15:24.227Z,2.93
2019-05-23T12:18:15.861Z,3.90
2019-05-23T12:21:06.682Z,3.07
2019-05-23T12:23:56.793Z,3.20
2019-05-23T12:26:47.061Z,3.33
2019-05-23T12:29:37.664Z,3.57
2019-05-23T12:32:27.678Z,2.80
2019-05-23T12:35:17.950Z,2.80
2019-05-23T12:38:09.320Z,3.13
2019-05-23T12:40:59.409Z,3.17
2019-05-23T12:43:49.445Z,3.17
2019-05-23T12:46:39.546Z,2.10
2019-05-23T12:49:41.679Z,2.00
2019-05-23T12:52:32.908Z,3.10
2019-05-23T12:55:23.083Z,2.67
2019-05-23T12:58:13.175Z,3.07
2019-05-23T13:01:05.192Z,2.67
2019-05-23T13:03:55.774Z,6.17
2019-05-23T13:06:47.823Z,3.00
2019-05-23T13:09:38.023Z,2.80
2019-05-23T13:12:29.155Z,3.93
2019-05-23T13:15:19.872Z,2.67
2019-05-23T13:18:09.205Z,2.33
2019-05-23T13:20:59.956Z,3.07
2019-05-23T13:23:50.325Z,2.30
2019-05-23T13:26:40.954Z,2.70
2019-05-23T13:29:30.826Z,3.37
2019-05-23T13:32:21.514Z,2.20
2019-05-23T13:35:12.317Z,2.50
2019-05-23T13:38:02.113Z,3.00
2019-05-23T13:40:52.431Z,2.40
2019-05-23T13:43:42.885Z,2.80
2019-05-23T13:46:33.217Z,1.93
2019-05-23T13:49:23.116Z,1.70
2019-05-23T13:52:13.555Z,7.93
2019-05-23T13:55:03.544Z,3.47
2019-05-23T13:57:53.448Z,2.60
2019-05-23T14:00:43.931Z,2.10
2019-05-23T14:03:34.302Z,2.17
2019-05-23T14:06:24.478Z,2.00
2019-05-23T14:09:15.906Z,1.90
2019-05-23T14:12:20.758Z,3.17
2019-05-23T14:14:59.160Z,2.63
2019-05-23T14:17:49.702Z,2.00
2019-05-23T14:20:39.953Z,2.53
2019-05-23T14:23:32.010Z,1.80
2019-05-23T14:26:22.162Z,3.00
2019-05-23T14:29:12.066Z,3.10
2019-05-23T14:32:14.447Z,2.63
2019-05-23T14:35:04.740Z,2.53
2019-05-23T14:37:56.676Z,2.07
2019-05-23T14:40:46.859Z,2.00
2019-05-23T14:43:37.515Z,2.97
2019-05-23T14:46:30.847Z,2.70
2019-05-23T14:49:27.591Z,2.50
2019-05-23T14:52:27.012Z,2.33
2019-05-23T14:55:17.423Z,2.70
2019-05-23T14:58:08.687Z,4.57
2019-05-23T15:00:59.184Z,3.87
2019-05-23T15:03:49.438Z,1.97
2019-05-23T15:06:39.560Z,2.10
2019-05-23T15:09:30.403Z,1.80
2019-05-23T15:12:19.700Z,1.80
2019-05-23T15:15:10.790Z,1.97
2019-05-23T15:18:01.201Z,1.43
2019-05-23T15:20:51.562Z,1.87
2019-05-23T15:23:41.662Z,1.90
2019-05-23T15:26:31.561Z,2.07
2019-05-23T15:29:21.285Z,1.83
2019-05-23T15:32:11.620Z,2.17
2019-05-23T15:35:01.521Z,1.93
2019-05-23T15:37:51.642Z,2.00
2019-05-23T15:40:41.944Z,2.00
2019-05-23T15:43:32.527Z,1.90
2019-05-23T15:46:22.526Z,2.10
2019-05-23T15:49:13.637Z,2.67
2019-05-23T15:52:18.780Z,1.80
2019-05-23T15:55:25.804Z,2.27
2019-05-23T15:58:34.441Z,2.07
2019-05-23T16:01:42.467Z,2.33
2019-05-23T16:04:32.706Z,2.00
2019-05-23T16:07:23.757Z,1.47
2019-05-23T16:10:15.743Z,1.80
2019-05-23T16:13:05.896Z,1.87
2019-05-23T16:15:57.445Z,2.13
2019-05-23T16:18:47.534Z,1.30
2019-05-23T16:21:38.694Z,1.63
2019-05-23T16:24:28.936Z,1.90
2019-05-23T16:27:19.128Z,2.03
2019-05-23T16:30:09.554Z,1.73
2019-05-23T16:32:59.402Z,2.00
2019-05-23T16:35:49.196Z,1.53
2019-05-23T16:38:38.978Z,1.93
2019-05-23T16:41:28.905Z,1.67
2019-05-23T16:44:20.116Z,1.87
2019-05-23T16:47:10.772Z,1.97
2019-05-23T16:50:00.228Z,1.93
2019-05-23T16:52:50.312Z,1.57
2019-05-23T16:55:46.088Z,2.33
2019-05-23T16:58:53.862Z,1.60
2019-05-23T17:02:06.399Z,1.97
2019-05-23T17:05:09.751Z,1.63
2019-05-23T17:08:18.554Z,1.80
2019-05-23T17:11:29.604Z,1.23
2019-05-23T17:14:32.935Z,1.70
2019-05-23T17:18:01.194Z,1.90
2019-05-23T17:20:48.509Z,1.50
2019-05-23T17:23:55.764Z,1.50
2019-05-23T17:26:57.681Z,1.40
2019-05-23T17:30:00.677Z,1.57
2019-05-23T17:32:50.871Z,1.83
2019-05-23T17:35:40.983Z,1.63
2019-05-23T17:38:31.410Z,1.80
2019-05-23T17:41:21.819Z,1.57
2019-05-23T17:44:11.862Z,2.17
2019-05-23T17:47:01.931Z,2.70
2019-05-23T17:49:51.803Z,1.90
2019-05-23T17:52:41.841Z,1.40
2019-05-23T17:55:32.538Z,1.20
2019-05-23T17:58:22.108Z,1.87
2019-05-23T18:01:12.213Z,2.20
2019-05-23T18:04:03.030Z,2.30
2019-05-23T18:06:53.901Z,2.03
2019-05-23T18:09:44.264Z,1.43
2019-05-23T18:12:34.793Z,1.20
2019-05-23T18:15:25.647Z,2.27
2019-05-23T18:18:15.959Z,1.20
2019-05-23T18:21:06.451Z,1.07
2019-05-23T18:23:57.061Z,1.23
2019-05-23T18:26:46.858Z,1.00
2019-05-23T18:29:37.076Z,1.17
2019-05-23T18:32:28.720Z,1.10
2019-05-23T18:35:20.730Z,1.27
2019-05-23T18:38:11.187Z,1.33
2019-05-23T18:41:05.797Z,1.20
2019-05-23T18:43:54.608Z,1.20
2019-05-23T18:46:47.764Z,2.00
2019-05-23T18:49:37.843Z,2.10
2019-05-23T18:52:28.145Z,2.07
2019-05-23T18:55:18.768Z,1.50
2019-05-23T18:58:08.354Z,1.93
2019-05-23T19:01:10.566Z,2.07
2019-05-23T19:04:02.030Z,2.83
2019-05-23T19:06:52.392Z,3.30
2019-05-23T19:09:42.903Z,2.33
2019-05-23T19:12:33.093Z,2.20
2019-05-23T19:15:23.107Z,1.80
2019-05-23T19:18:14.163Z,1.77
2019-05-23T19:21:06.130Z,1.40
2019-05-23T19:23:56.888Z,2.33
2019-05-23T19:26:48.532Z,1.47
2019-05-23T19:29:40.237Z,1.70
2019-05-23T19:32:30.539Z,1.43
2019-05-23T19:35:20.959Z,1.73
2019-05-23T19:38:12.024Z,1.87
2019-05-23T19:41:02.566Z,1.93
2019-05-23T19:43:53.174Z,2.30
2019-05-23T19:46:43.415Z,1.80
2019-05-23T19:49:33.002Z,1.63
2019-05-23T19:52:24.190Z,1.83
2019-05-23T19:55:14.661Z,1.90
2019-05-23T19:58:05.057Z,1.83
2019-05-23T20:00:54.855Z,1.67
2019-05-23T20:03:44.870Z,1.90
2019-05-23T20:06:34.825Z,2.17
2019-05-23T20:09:26.700Z,2.70
2019-05-23T20:12:16.949Z,2.53
2019-05-23T20:15:08.470Z,2.77
2019-05-23T20:17:59.339Z,3.00
2019-05-23T20:20:50.032Z,2.70
2019-05-23T20:23:39.720Z,2.63
2019-05-23T20:26:30.707Z,2.97
2019-05-23T20:29:21.129Z,3.00
2019-05-23T20:32:12.606Z,3.37
2019-05-23T20:35:02.705Z,3.83
2019-05-23T20:37:52.888Z,3.33
2019-05-23T20:40:42.774Z,2.70
2019-05-23T20:43:32.447Z,33.53
2019-05-23T20:46:22.594Z,12.77
2019-05-23T20:49:13.210Z,7.80
2019-05-23T20:52:03.464Z,11.13
2019-05-23T20:54:53.619Z,7.20
2019-05-23T20:57:43.538Z,6.50
2019-05-23T21:00:47.820Z,4.10
2019-05-23T21:03:37.863Z,3.90
2019-05-23T21:06:28.055Z,4.00
2019-05-23T21:09:18.619Z,3.77
2019-05-23T21:12:09.300Z,2.83
2019-05-23T21:14:59.645Z,3.77
2019-05-23T21:17:49.180Z,2.17
2019-05-23T21:20:39.905Z,2.33
2019-05-23T21:23:29.183Z,2.47
2019-05-23T21:26:18.974Z,2.50
2019-05-23T21:29:08.658Z,1.97
2019-05-23T21:31:58.774Z,2.00
2019-05-23T21:34:48.973Z,1.73
2019-05-23T21:37:38.690Z,2.40
2019-05-23T21:40:46.014Z,1.80
2019-05-23T21:43:35.784Z,2.53
2019-05-23T21:46:25.296Z,2.20
2019-05-23T21:49:15.751Z,2.40
2019-05-23T21:52:07.341Z,2.40
2019-05-23T21:54:56.403Z,2.53
2019-05-23T21:57:46.973Z,2.67
2019-05-23T22:01:39.318Z,2.80
2019-05-23T22:04:45.405Z,2.23
2019-05-23T22:07:35.565Z,2.60
2019-05-23T22:10:25.727Z,2.73
2019-05-23T22:13:15.429Z,2.20
2019-05-23T22:16:05.852Z,2.60
2019-05-23T22:18:55.766Z,2.50
2019-05-23T22:21:46.127Z,2.63
2019-05-23T22:24:36.408Z,2.60
2019-05-23T22:27:27.026Z,3.03
2019-05-23T22:30:17.550Z,3.00
2019-05-23T22:33:08.922Z,3.30
2019-05-23T22:36:00.570Z,2.40
2019-05-23T22:38:50.921Z,2.83
2019-05-23T22:41:40.770Z,3.03
2019-05-23T22:44:30.755Z,2.70
2019-05-23T22:47:20.858Z,3.00
2019-05-23T22:50:11.048Z,3.20
2019-05-23T22:53:00.811Z,2.50
2019-05-23T22:55:51.159Z,2.60
2019-05-23T22:58:41.410Z,3.10
2019-05-23T23:01:32.579Z,2.67
2019-05-23T23:04:22.680Z,2.87
2019-05-23T23:07:13.406Z,2.73
2019-05-23T23:10:03.199Z,3.23
2019-05-23T23:12:52.790Z,3.30
2019-05-23T23:15:42.618Z,2.97
2019-05-23T23:18:32.495Z,3.73
2019-05-23T23:21:22.670Z,3.60
2019-05-23T23:24:12.519Z,3.07
2019-05-23T23:27:02.458Z,3.30
2019-05-23T23:29:52.319Z,2.40
2019-05-23T23:32:42.653Z,2.37
2019-05-23T23:35:32.744Z,2.87
2019-05-23T23:38:22.727Z,3.37
2019-05-23T23:41:13.020Z,2.87
2019-05-23T23:44:02.986Z,2.60
2019-05-23T23:47:11.448Z,2.60
2019-05-23T23:50:19.567Z,2.13
2019-05-23T23:53:27.402Z,2.53
2019-05-23T23:56:35.669Z,2.50
2019-05-23T23:59:24.394Z,2.83
